sensor_id;sensor_type;location;lat;lon;timestamp;P1;durP1;ratioP1;P2;durP2;ratioP2
11046;SDS011;5576;50.008;10.596;2024-02-21T00:00:22;6.93;;;2.73;;
11046;SDS011;5576;50.008;10.596;2024-02-21T00:02:48;8.43;;;3.10;;
11046;SDS011;5576;50.008;10.596;2024-02-21T00:05:13;11.00;;;3.95;;
11046;SDS011;5576;50.008;10.596;2024-02-21T00:07:39;7.27;;;2.63;;
11046;SDS011;5576;50.008;10.596;2024-02-21T00:10:05;10.00;;;3.38;;
11046;SDS011;5576;50.008;10.596;2024-02-21T00:12:31;8.23;;;3.05;;
11046;SDS011;5576;50.008;10.596;2024-02-21T00:14:57;12.70;;;3.50;;
11046;SDS011;5576;50.008;10.596;2024-02-21T00:17:23;7.50;;;3.23;;
11046;SDS011;5576;50.008;10.596;2024-02-21T00:19:51;9.18;;;3.28;;
11046;SDS011;5576;50.008;10.596;2024-02-21T00:22:17;7.88;;;3.13;;
11046;SDS011;5576;50.008;10.596;2024-02-21T00:24:42;8.18;;;2.85;;
11046;SDS011;5576;50.008;10.596;2024-02-21T00:27:08;7.85;;;2.97;;
11046;SDS011;5576;50.008;10.596;2024-02-21T00:29:34;16.55;;;5.85;;
11046;SDS011;5576;50.008;10.596;2024-02-21T00:32:00;9.45;;;2.92;;
11046;SDS011;5576;50.008;10.596;2024-02-21T00:34:25;7.60;;;2.93;;
11046;SDS011;5576;50.008;10.596;2024-02-21T00:36:53;10.23;;;3.00;;
11046;SDS011;5576;50.008;10.596;2024-02-21T00:39:18;10.07;;;2.80;;
11046;SDS011;5576;50.008;10.596;2024-02-21T00:41:44;8.23;;;2.70;;
11046;SDS011;5576;50.008;10.596;2024-02-21T00:44:10;8.97;;;2.80;;
11046;SDS011;5576;50.008;10.596;2024-02-21T00:46:35;12.02;;;3.00;;
11046;SDS011;5576;50.008;10.596;2024-02-21T00:49:03;7.93;;;3.00;;
11046;SDS011;5576;50.008;10.596;2024-02-21T00:51:29;5.97;;;2.67;;
11046;SDS011;5576;50.008;10.596;2024-02-21T00:53:55;9.90;;;2.92;;
11046;SDS011;5576;50.008;10.596;2024-02-21T00:56:20;7.43;;;2.80;;
11046;SDS011;5576;50.008;10.596;2024-02-21T00:58:46;8.68;;;3.08;;
11046;SDS011;5576;50.008;10.596;2024-02-21T01:01:12;5.97;;;2.70;;
11046;SDS011;5576;50.008;10.596;2024-02-21T01:03:39;8.82;;;2.83;;
11046;SDS011;5576;50.008;10.596;2024-02-21T01:06:05;8.38;;;2.95;;
11046;SDS011;5576;50.008;10.596;2024-02-21T01:08:31;8.20;;;2.65;;
11046;SDS011;5576;50.008;10.596;2024-02-21T01:10:57;8.47;;;2.77;;
11046;SDS011;5576;50.008;10.596;2024-02-21T01:13:23;10.30;;;3.00;;
11046;SDS011;5576;50.008;10.596;2024-02-21T01:15:48;8.60;;;2.80;;
11046;SDS011;5576;50.008;10.596;2024-02-21T01:18:14;9.88;;;2.97;;
11046;SDS011;5576;50.008;10.596;2024-02-21T01:20:40;7.17;;;3.03;;
11046;SDS011;5576;50.008;10.596;2024-02-21T01:23:06;7.40;;;2.75;;
11046;SDS011;5576;50.008;10.596;2024-02-21T01:25:31;8.83;;;2.90;;
11046;SDS011;5576;50.008;10.596;2024-02-21T01:27:57;8.10;;;2.95;;
11046;SDS011;5576;50.008;10.596;2024-02-21T01:30:23;9.87;;;3.17;;
11046;SDS011;5576;50.008;10.596;2024-02-21T01:32:48;7.82;;;2.92;;
11046;SDS011;5576;50.008;10.596;2024-02-21T01:35:14;6.43;;;2.77;;
11046;SDS011;5576;50.008;10.596;2024-02-21T01:37:40;8.40;;;2.73;;
11046;SDS011;5576;50.008;10.596;2024-02-21T01:40:06;8.10;;;2.90;;
11046;SDS011;5576;50.008;10.596;2024-02-21T01:42:32;8.90;;;2.90;;
11046;SDS011;5576;50.008;10.596;2024-02-21T01:44:58;10.38;;;2.97;;
11046;SDS011;5576;50.008;10.596;2024-02-21T01:47:23;9.37;;;2.80;;
11046;SDS011;5576;50.008;10.596;2024-02-21T01:49:50;8.68;;;3.00;;
11046;SDS011;5576;50.008;10.596;2024-02-21T01:52:15;7.43;;;3.17;;
11046;SDS011;5576;50.008;10.596;2024-02-21T01:54:42;9.57;;;3.22;;
11046;SDS011;5576;50.008;10.596;2024-02-21T01:57:09;9.55;;;2.75;;
11046;SDS011;5576;50.008;10.596;2024-02-21T01:59:35;5.10;;;2.50;;
11046;SDS011;5576;50.008;10.596;2024-02-21T02:02:01;8.97;;;3.00;;
11046;SDS011;5576;50.008;10.596;2024-02-21T02:04:27;10.82;;;2.85;;
11046;SDS011;5576;50.008;10.596;2024-02-21T02:06:54;8.37;;;3.10;;
11046;SDS011;5576;50.008;10.596;2024-02-21T02:09:20;6.90;;;2.70;;
11046;SDS011;5576;50.008;10.596;2024-02-21T02:11:46;6.35;;;2.88;;
11046;SDS011;5576;50.008;10.596;2024-02-21T02:14:12;11.15;;;3.10;;
11046;SDS011;5576;50.008;10.596;2024-02-21T02:16:37;10.80;;;3.10;;
11046;SDS011;5576;50.008;10.596;2024-02-21T02:19:03;7.13;;;2.88;;
11046;SDS011;5576;50.008;10.596;2024-02-21T02:21:32;7.67;;;3.13;;
11046;SDS011;5576;50.008;10.596;2024-02-21T02:24:01;7.93;;;2.90;;
11046;SDS011;5576;50.008;10.596;2024-02-21T02:26:27;8.95;;;3.35;;
11046;SDS011;5576;50.008;10.596;2024-02-21T02:28:53;9.13;;;3.47;;
11046;SDS011;5576;50.008;10.596;2024-02-21T02:31:19;7.63;;;3.30;;
11046;SDS011;5576;50.008;10.596;2024-02-21T02:33:45;6.50;;;2.63;;
11046;SDS011;5576;50.008;10.596;2024-02-21T02:36:11;7.22;;;3.20;;
11046;SDS011;5576;50.008;10.596;2024-02-21T02:38:37;8.45;;;2.88;;
11046;SDS011;5576;50.008;10.596;2024-02-21T02:41:02;7.37;;;2.90;;
11046;SDS011;5576;50.008;10.596;2024-02-21T02:43:28;9.43;;;3.08;;
11046;SDS011;5576;50.008;10.596;2024-02-21T02:45:54;8.53;;;3.03;;
11046;SDS011;5576;50.008;10.596;2024-02-21T02:48:20;9.00;;;3.10;;
11046;SDS011;5576;50.008;10.596;2024-02-21T02:50:46;6.90;;;2.97;;
11046;SDS011;5576;50.008;10.596;2024-02-21T02:53:12;7.75;;;2.92;;
11046;SDS011;5576;50.008;10.596;2024-02-21T02:55:38;8.88;;;3.17;;
11046;SDS011;5576;50.008;10.596;2024-02-21T02:58:03;7.88;;;3.13;;
11046;SDS011;5576;50.008;10.596;2024-02-21T03:00:29;6.88;;;2.85;;
11046;SDS011;5576;50.008;10.596;2024-02-21T03:02:55;7.13;;;2.75;;
11046;SDS011;5576;50.008;10.596;2024-02-21T03:05:21;7.97;;;3.40;;
11046;SDS011;5576;50.008;10.596;2024-02-21T03:07:47;7.63;;;3.20;;
11046;SDS011;5576;50.008;10.596;2024-02-21T03:10:14;7.72;;;3.00;;
11046;SDS011;5576;50.008;10.596;2024-02-21T03:12:41;8.73;;;3.05;;
11046;SDS011;5576;50.008;10.596;2024-02-21T03:15:07;9.52;;;3.67;;
11046;SDS011;5576;50.008;10.596;2024-02-21T03:17:34;9.60;;;3.22;;
11046;SDS011;5576;50.008;10.596;2024-02-21T03:20:00;8.70;;;3.60;;
11046;SDS011;5576;50.008;10.596;2024-02-21T03:22:30;7.75;;;3.20;;
11046;SDS011;5576;50.008;10.596;2024-02-21T03:24:57;9.65;;;3.05;;
11046;SDS011;5576;50.008;10.596;2024-02-21T03:27:23;7.07;;;3.00;;
11046;SDS011;5576;50.008;10.596;2024-02-21T03:29:48;7.10;;;3.00;;
11046;SDS011;5576;50.008;10.596;2024-02-21T03:32:14;9.05;;;3.05;;
11046;SDS011;5576;50.008;10.596;2024-02-21T03:34:40;8.87;;;3.40;;
11046;SDS011;5576;50.008;10.596;2024-02-21T03:37:05;8.80;;;3.20;;
11046;SDS011;5576;50.008;10.596;2024-02-21T03:39:31;6.77;;;3.03;;
11046;SDS011;5576;50.008;10.596;2024-02-21T03:41:58;7.18;;;3.40;;
11046;SDS011;5576;50.008;10.596;2024-02-21T03:44:29;7.25;;;3.05;;
11046;SDS011;5576;50.008;10.596;2024-02-21T03:46:56;8.10;;;3.42;;
11046;SDS011;5576;50.008;10.596;2024-02-21T03:49:22;10.18;;;3.42;;
11046;SDS011;5576;50.008;10.596;2024-02-21T03:51:47;7.27;;;3.90;;
11046;SDS011;5576;50.008;10.596;2024-02-21T03:54:13;8.63;;;3.40;;
11046;SDS011;5576;50.008;10.596;2024-02-21T03:56:39;11.10;;;3.70;;
11046;SDS011;5576;50.008;10.596;2024-02-21T03:59:06;9.18;;;3.35;;
11046;SDS011;5576;50.008;10.596;2024-02-21T04:01:33;10.07;;;3.25;;
11046;SDS011;5576;50.008;10.596;2024-02-21T04:04:00;9.13;;;3.35;;
11046;SDS011;5576;50.008;10.596;2024-02-21T04:06:26;8.48;;;3.38;;
11046;SDS011;5576;50.008;10.596;2024-02-21T04:08:51;6.65;;;3.10;;
11046;SDS011;5576;50.008;10.596;2024-02-21T04:11:17;8.10;;;3.03;;
11046;SDS011;5576;50.008;10.596;2024-02-21T04:13:44;10.00;;;3.50;;
11046;SDS011;5576;50.008;10.596;2024-02-21T04:16:13;10.48;;;3.42;;
11046;SDS011;5576;50.008;10.596;2024-02-21T04:18:39;11.23;;;3.45;;
11046;SDS011;5576;50.008;10.596;2024-02-21T04:21:05;7.97;;;3.60;;
11046;SDS011;5576;50.008;10.596;2024-02-21T04:23:31;11.10;;;3.45;;
11046;SDS011;5576;50.008;10.596;2024-02-21T04:25:57;9.73;;;3.70;;
11046;SDS011;5576;50.008;10.596;2024-02-21T04:28:22;7.78;;;3.10;;
11046;SDS011;5576;50.008;10.596;2024-02-21T04:30:48;8.53;;;3.30;;
11046;SDS011;5576;50.008;10.596;2024-02-21T04:33:14;9.15;;;3.67;;
11046;SDS011;5576;50.008;10.596;2024-02-21T04:35:39;8.97;;;3.43;;
11046;SDS011;5576;50.008;10.596;2024-02-21T04:38:05;8.57;;;3.40;;
11046;SDS011;5576;50.008;10.596;2024-02-21T04:40:31;8.07;;;3.17;;
11046;SDS011;5576;50.008;10.596;2024-02-21T04:42:57;9.68;;;3.35;;
11046;SDS011;5576;50.008;10.596;2024-02-21T04:45:23;9.20;;;3.40;;
11046;SDS011;5576;50.008;10.596;2024-02-21T04:47:49;8.33;;;3.50;;
11046;SDS011;5576;50.008;10.596;2024-02-21T04:50:15;7.13;;;3.25;;
11046;SDS011;5576;50.008;10.596;2024-02-21T04:52:40;6.80;;;3.15;;
11046;SDS011;5576;50.008;10.596;2024-02-21T04:55:06;7.55;;;3.20;;
11046;SDS011;5576;50.008;10.596;2024-02-21T04:57:33;9.38;;;3.30;;
11046;SDS011;5576;50.008;10.596;2024-02-21T04:59:58;9.45;;;3.42;;
11046;SDS011;5576;50.008;10.596;2024-02-21T05:02:24;8.50;;;3.33;;
11046;SDS011;5576;50.008;10.596;2024-02-21T05:04:52;9.02;;;3.67;;
11046;SDS011;5576;50.008;10.596;2024-02-21T05:07:18;6.75;;;3.60;;
11046;SDS011;5576;50.008;10.596;2024-02-21T05:09:44;7.93;;;3.40;;
11046;SDS011;5576;50.008;10.596;2024-02-21T05:12:11;7.15;;;3.15;;
11046;SDS011;5576;50.008;10.596;2024-02-21T05:14:37;9.50;;;3.53;;
11046;SDS011;5576;50.008;10.596;2024-02-21T05:17:03;5.77;;;3.33;;
11046;SDS011;5576;50.008;10.596;2024-02-21T05:19:29;8.38;;;3.53;;
11046;SDS011;5576;50.008;10.596;2024-02-21T05:21:55;7.67;;;3.73;;
11046;SDS011;5576;50.008;10.596;2024-02-21T05:24:21;9.05;;;3.55;;
11046;SDS011;5576;50.008;10.596;2024-02-21T05:26:46;9.20;;;3.57;;
11046;SDS011;5576;50.008;10.596;2024-02-21T05:29:12;8.43;;;3.38;;
11046;SDS011;5576;50.008;10.596;2024-02-21T05:34:22;9.43;;;3.83;;
11046;SDS011;5576;50.008;10.596;2024-02-21T05:36:48;7.82;;;3.28;;
11046;SDS011;5576;50.008;10.596;2024-02-21T05:39:15;8.50;;;3.50;;
11046;SDS011;5576;50.008;10.596;2024-02-21T05:41:42;6.77;;;3.47;;
11046;SDS011;5576;50.008;10.596;2024-02-21T05:44:08;11.48;;;3.50;;
11046;SDS011;5576;50.008;10.596;2024-02-21T05:46:34;7.90;;;3.85;;
11046;SDS011;5576;50.008;10.596;2024-02-21T05:49:00;8.00;;;3.40;;
11046;SDS011;5576;50.008;10.596;2024-02-21T05:51:26;9.63;;;3.70;;
11046;SDS011;5576;50.008;10.596;2024-02-21T05:53:51;10.27;;;3.95;;
11046;SDS011;5576;50.008;10.596;2024-02-21T05:56:17;7.87;;;4.00;;
11046;SDS011;5576;50.008;10.596;2024-02-21T05:58:43;9.73;;;3.75;;
11046;SDS011;5576;50.008;10.596;2024-02-21T06:01:09;9.80;;;4.10;;
11046;SDS011;5576;50.008;10.596;2024-02-21T06:03:35;11.65;;;4.10;;
11046;SDS011;5576;50.008;10.596;2024-02-21T06:06:01;7.93;;;4.47;;
11046;SDS011;5576;50.008;10.596;2024-02-21T06:08:28;8.60;;;4.18;;
11046;SDS011;5576;50.008;10.596;2024-02-21T06:10:54;7.47;;;3.93;;
11046;SDS011;5576;50.008;10.596;2024-02-21T06:13:20;10.05;;;4.25;;
11046;SDS011;5576;50.008;10.596;2024-02-21T06:15:47;11.25;;;4.00;;
11046;SDS011;5576;50.008;10.596;2024-02-21T06:18:14;10.35;;;4.20;;
11046;SDS011;5576;50.008;10.596;2024-02-21T06:20:40;8.63;;;3.78;;
11046;SDS011;5576;50.008;10.596;2024-02-21T06:23:08;6.90;;;3.70;;
11046;SDS011;5576;50.008;10.596;2024-02-21T06:25:34;12.20;;;4.45;;
11046;SDS011;5576;50.008;10.596;2024-02-21T06:27:59;10.70;;;4.45;;
11046;SDS011;5576;50.008;10.596;2024-02-21T06:30:25;8.77;;;3.92;;
11046;SDS011;5576;50.008;10.596;2024-02-21T06:32:51;9.43;;;4.00;;
11046;SDS011;5576;50.008;10.596;2024-02-21T06:35:17;9.45;;;3.90;;
11046;SDS011;5576;50.008;10.596;2024-02-21T06:37:44;7.20;;;3.78;;
11046;SDS011;5576;50.008;10.596;2024-02-21T06:40:15;8.32;;;3.70;;
11046;SDS011;5576;50.008;10.596;2024-02-21T06:42:41;12.20;;;3.83;;
11046;SDS011;5576;50.008;10.596;2024-02-21T06:45:07;7.32;;;3.50;;
11046;SDS011;5576;50.008;10.596;2024-02-21T06:47:33;8.25;;;3.53;;
11046;SDS011;5576;50.008;10.596;2024-02-21T06:49:59;8.48;;;3.78;;
11046;SDS011;5576;50.008;10.596;2024-02-21T06:52:25;9.43;;;3.40;;
11046;SDS011;5576;50.008;10.596;2024-02-21T06:54:51;6.63;;;3.50;;
11046;SDS011;5576;50.008;10.596;2024-02-21T06:57:17;8.27;;;4.00;;
11046;SDS011;5576;50.008;10.596;2024-02-21T06:59:43;8.90;;;3.70;;
11046;SDS011;5576;50.008;10.596;2024-02-21T07:02:09;9.90;;;3.87;;
11046;SDS011;5576;50.008;10.596;2024-02-21T07:04:34;11.45;;;4.07;;
11046;SDS011;5576;50.008;10.596;2024-02-21T07:07:00;8.97;;;3.90;;
11046;SDS011;5576;50.008;10.596;2024-02-21T07:09:26;9.88;;;4.30;;
11046;SDS011;5576;50.008;10.596;2024-02-21T07:11:53;10.90;;;4.18;;
11046;SDS011;5576;50.008;10.596;2024-02-21T07:14:19;7.45;;;4.00;;
11046;SDS011;5576;50.008;10.596;2024-02-21T07:16:45;10.20;;;4.00;;
11046;SDS011;5576;50.008;10.596;2024-02-21T07:19:11;8.02;;;4.10;;
11046;SDS011;5576;50.008;10.596;2024-02-21T07:21:36;12.63;;;4.40;;
11046;SDS011;5576;50.008;10.596;2024-02-21T07:24:06;10.35;;;4.32;;
11046;SDS011;5576;50.008;10.596;2024-02-21T07:26:32;10.20;;;4.20;;
11046;SDS011;5576;50.008;10.596;2024-02-21T07:28:58;8.43;;;4.20;;
11046;SDS011;5576;50.008;10.596;2024-02-21T07:31:24;9.38;;;4.20;;
11046;SDS011;5576;50.008;10.596;2024-02-21T07:33:50;7.93;;;3.83;;
11046;SDS011;5576;50.008;10.596;2024-02-21T07:36:15;9.77;;;4.20;;
11046;SDS011;5576;50.008;10.596;2024-02-21T07:38:49;8.60;;;4.07;;
11046;SDS011;5576;50.008;10.596;2024-02-21T07:41:15;9.35;;;4.85;;
11046;SDS011;5576;50.008;10.596;2024-02-21T07:43:41;9.73;;;5.25;;
11046;SDS011;5576;50.008;10.596;2024-02-21T07:46:07;8.55;;;4.13;;
11046;SDS011;5576;50.008;10.596;2024-02-21T07:48:32;10.35;;;5.05;;
11046;SDS011;5576;50.008;10.596;2024-02-21T07:50:58;9.20;;;4.13;;
11046;SDS011;5576;50.008;10.596;2024-02-21T07:53:24;9.50;;;5.10;;
11046;SDS011;5576;50.008;10.596;2024-02-21T07:55:49;10.85;;;5.93;;
11046;SDS011;5576;50.008;10.596;2024-02-21T07:58:15;9.30;;;4.83;;
11046;SDS011;5576;50.008;10.596;2024-02-21T08:00:41;10.25;;;4.35;;
11046;SDS011;5576;50.008;10.596;2024-02-21T08:03:06;15.13;;;5.70;;
11046;SDS011;5576;50.008;10.596;2024-02-21T08:05:34;9.95;;;4.93;;
11046;SDS011;5576;50.008;10.596;2024-02-21T08:08:00;9.60;;;4.90;;
11046;SDS011;5576;50.008;10.596;2024-02-21T08:10:25;11.07;;;4.32;;
11046;SDS011;5576;50.008;10.596;2024-02-21T08:12:51;10.87;;;4.93;;
11046;SDS011;5576;50.008;10.596;2024-02-21T08:15:17;7.10;;;3.22;;
11046;SDS011;5576;50.008;10.596;2024-02-21T08:17:42;7.37;;;3.30;;
11046;SDS011;5576;50.008;10.596;2024-02-21T08:20:08;9.63;;;3.92;;
11046;SDS011;5576;50.008;10.596;2024-02-21T08:22:37;8.40;;;3.45;;
11046;SDS011;5576;50.008;10.596;2024-02-21T08:25:03;7.00;;;3.50;;
11046;SDS011;5576;50.008;10.596;2024-02-21T08:27:30;9.13;;;3.30;;
11046;SDS011;5576;50.008;10.596;2024-02-21T08:29:56;7.35;;;3.50;;
11046;SDS011;5576;50.008;10.596;2024-02-21T08:32:22;11.37;;;3.53;;
11046;SDS011;5576;50.008;10.596;2024-02-21T08:34:48;11.15;;;3.85;;
11046;SDS011;5576;50.008;10.596;2024-02-21T08:37:13;7.88;;;3.20;;
11046;SDS011;5576;50.008;10.596;2024-02-21T08:39:39;9.10;;;3.17;;
11046;SDS011;5576;50.008;10.596;2024-02-21T08:42:05;9.05;;;3.65;;
11046;SDS011;5576;50.008;10.596;2024-02-21T08:44:31;11.50;;;3.22;;
11046;SDS011;5576;50.008;10.596;2024-02-21T08:46:56;8.33;;;3.10;;
11046;SDS011;5576;50.008;10.596;2024-02-21T08:49:22;10.88;;;3.78;;
11046;SDS011;5576;50.008;10.596;2024-02-21T08:51:48;8.40;;;3.10;;
11046;SDS011;5576;50.008;10.596;2024-02-21T08:54:14;5.55;;;3.10;;
11046;SDS011;5576;50.008;10.596;2024-02-21T08:56:39;7.03;;;3.20;;
11046;SDS011;5576;50.008;10.596;2024-02-21T08:59:05;9.25;;;3.40;;
11046;SDS011;5576;50.008;10.596;2024-02-21T09:01:31;6.57;;;3.07;;
11046;SDS011;5576;50.008;10.596;2024-02-21T09:03:56;7.20;;;3.42;;
11046;SDS011;5576;50.008;10.596;2024-02-21T09:06:23;8.55;;;3.17;;
11046;SDS011;5576;50.008;10.596;2024-02-21T09:08:49;7.00;;;2.93;;
11046;SDS011;5576;50.008;10.596;2024-02-21T09:11:14;7.70;;;3.20;;
11046;SDS011;5576;50.008;10.596;2024-02-21T09:13:40;5.37;;;2.67;;
11046;SDS011;5576;50.008;10.596;2024-02-21T09:16:06;6.88;;;2.90;;
11046;SDS011;5576;50.008;10.596;2024-02-21T09:18:32;8.80;;;3.10;;
11046;SDS011;5576;50.008;10.596;2024-02-21T09:20:57;5.72;;;2.55;;
11046;SDS011;5576;50.008;10.596;2024-02-21T09:23:24;6.87;;;2.80;;
11046;SDS011;5576;50.008;10.596;2024-02-21T09:25:50;5.80;;;2.72;;
11046;SDS011;5576;50.008;10.596;2024-02-21T09:28:16;7.97;;;2.80;;
11046;SDS011;5576;50.008;10.596;2024-02-21T09:30:41;7.50;;;2.80;;
11046;SDS011;5576;50.008;10.596;2024-02-21T09:33:08;6.90;;;3.08;;
11046;SDS011;5576;50.008;10.596;2024-02-21T09:35:33;9.07;;;2.67;;
11046;SDS011;5576;50.008;10.596;2024-02-21T09:37:59;6.80;;;2.95;;
11046;SDS011;5576;50.008;10.596;2024-02-21T09:40:25;8.27;;;2.75;;
11046;SDS011;5576;50.008;10.596;2024-02-21T09:42:55;7.03;;;2.75;;
11046;SDS011;5576;50.008;10.596;2024-02-21T09:45:29;8.38;;;2.92;;
11046;SDS011;5576;50.008;10.596;2024-02-21T09:47:59;9.60;;;3.33;;
11046;SDS011;5576;50.008;10.596;2024-02-21T09:50:46;12.63;;;4.65;;
11046;SDS011;5576;50.008;10.596;2024-02-21T09:53:14;8.65;;;3.35;;
11046;SDS011;5576;50.008;10.596;2024-02-21T09:55:41;6.45;;;3.58;;
11046;SDS011;5576;50.008;10.596;2024-02-21T09:58:08;4.45;;;2.65;;
11046;SDS011;5576;50.008;10.596;2024-02-21T10:00:35;6.93;;;2.95;;
11046;SDS011;5576;50.008;10.596;2024-02-21T10:03:01;6.30;;;2.97;;
11046;SDS011;5576;50.008;10.596;2024-02-21T10:05:33;11.85;;;3.22;;
11046;SDS011;5576;50.008;10.596;2024-02-21T10:08:01;6.53;;;2.70;;
11046;SDS011;5576;50.008;10.596;2024-02-21T10:10:27;5.50;;;2.50;;
11046;SDS011;5576;50.008;10.596;2024-02-21T10:12:54;8.57;;;3.20;;
11046;SDS011;5576;50.008;10.596;2024-02-21T10:15:21;6.30;;;2.55;;
11046;SDS011;5576;50.008;10.596;2024-02-21T10:17:49;6.28;;;2.42;;
11046;SDS011;5576;50.008;10.596;2024-02-21T10:20:22;6.82;;;2.55;;
11046;SDS011;5576;50.008;10.596;2024-02-21T10:22:48;4.55;;;2.70;;
11046;SDS011;5576;50.008;10.596;2024-02-21T10:25:14;7.90;;;3.20;;
11046;SDS011;5576;50.008;10.596;2024-02-21T10:27:40;7.05;;;2.58;;
11046;SDS011;5576;50.008;10.596;2024-02-21T10:30:07;6.07;;;2.42;;
11046;SDS011;5576;50.008;10.596;2024-02-21T10:32:48;4.25;;;2.65;;
11046;SDS011;5576;50.008;10.596;2024-02-21T10:35:25;5.93;;;2.78;;
11046;SDS011;5576;50.008;10.596;2024-02-21T10:37:52;7.80;;;2.97;;
11046;SDS011;5576;50.008;10.596;2024-02-21T10:40:22;6.05;;;2.60;;
11046;SDS011;5576;50.008;10.596;2024-02-21T10:42:55;6.63;;;2.47;;
11046;SDS011;5576;50.008;10.596;2024-02-21T10:45:28;8.77;;;2.50;;
11046;SDS011;5576;50.008;10.596;2024-02-21T10:48:01;7.25;;;2.50;;
11046;SDS011;5576;50.008;10.596;2024-02-21T10:50:36;7.03;;;2.80;;
11046;SDS011;5576;50.008;10.596;2024-02-21T10:53:26;6.40;;;2.28;;
11046;SDS011;5576;50.008;10.596;2024-02-21T10:56:06;5.07;;;2.30;;
11046;SDS011;5576;50.008;10.596;2024-02-21T10:58:39;6.07;;;2.30;;
11046;SDS011;5576;50.008;10.596;2024-02-21T11:01:05;6.32;;;2.28;;
11046;SDS011;5576;50.008;10.596;2024-02-21T11:03:32;5.88;;;2.40;;
11046;SDS011;5576;50.008;10.596;2024-02-21T11:05:58;7.60;;;3.00;;
11046;SDS011;5576;50.008;10.596;2024-02-21T11:08:25;5.68;;;2.35;;
11046;SDS011;5576;50.008;10.596;2024-02-21T11:10:56;7.55;;;2.78;;
11046;SDS011;5576;50.008;10.596;2024-02-21T11:13:29;4.03;;;2.20;;
11046;SDS011;5576;50.008;10.596;2024-02-21T11:16:21;10.67;;;4.70;;
11046;SDS011;5576;50.008;10.596;2024-02-21T11:18:47;4.90;;;2.55;;
11046;SDS011;5576;50.008;10.596;2024-02-21T11:21:13;6.47;;;2.35;;
11046;SDS011;5576;50.008;10.596;2024-02-21T11:23:38;4.90;;;2.42;;
11046;SDS011;5576;50.008;10.596;2024-02-21T11:28:32;5.78;;;2.35;;
11046;SDS011;5576;50.008;10.596;2024-02-21T11:31:14;5.88;;;2.20;;
11046;SDS011;5576;50.008;10.596;2024-02-21T11:33:40;8.02;;;2.50;;
11046;SDS011;5576;50.008;10.596;2024-02-21T11:36:07;7.32;;;2.80;;
11046;SDS011;5576;50.008;10.596;2024-02-21T11:38:34;7.13;;;2.80;;
11046;SDS011;5576;50.008;10.596;2024-02-21T11:40:59;6.37;;;2.60;;
11046;SDS011;5576;50.008;10.596;2024-02-21T11:43:25;7.13;;;2.75;;
11046;SDS011;5576;50.008;10.596;2024-02-21T11:45:58;7.30;;;3.60;;
11046;SDS011;5576;50.008;10.596;2024-02-21T11:48:25;5.60;;;2.40;;
11046;SDS011;5576;50.008;10.596;2024-02-21T11:50:55;5.97;;;2.40;;
11046;SDS011;5576;50.008;10.596;2024-02-21T11:53:21;9.32;;;3.97;;
11046;SDS011;5576;50.008;10.596;2024-02-21T11:55:47;29.58;;;9.45;;
11046;SDS011;5576;50.008;10.596;2024-02-21T11:58:13;12.63;;;4.17;;
11046;SDS011;5576;50.008;10.596;2024-02-21T12:00:40;12.93;;;4.65;;
11046;SDS011;5576;50.008;10.596;2024-02-21T12:03:06;8.73;;;3.08;;
11046;SDS011;5576;50.008;10.596;2024-02-21T12:05:32;13.40;;;4.47;;
11046;SDS011;5576;50.008;10.596;2024-02-21T12:07:58;7.97;;;3.67;;
11046;SDS011;5576;50.008;10.596;2024-02-21T12:10:25;10.38;;;4.47;;
11046;SDS011;5576;50.008;10.596;2024-02-21T12:12:52;7.30;;;3.13;;
11046;SDS011;5576;50.008;10.596;2024-02-21T12:15:23;7.70;;;3.33;;
11046;SDS011;5576;50.008;10.596;2024-02-21T12:17:49;7.22;;;3.13;;
11046;SDS011;5576;50.008;10.596;2024-02-21T12:20:17;14.95;;;6.25;;
11046;SDS011;5576;50.008;10.596;2024-02-21T12:22:42;10.05;;;4.22;;
11046;SDS011;5576;50.008;10.596;2024-02-21T12:25:16;6.90;;;2.05;;
11046;SDS011;5576;50.008;10.596;2024-02-21T12:27:44;7.10;;;2.20;;
11046;SDS011;5576;50.008;10.596;2024-02-21T12:30:10;11.43;;;4.60;;
11046;SDS011;5576;50.008;10.596;2024-02-21T12:32:36;11.48;;;5.20;;
11046;SDS011;5576;50.008;10.596;2024-02-21T12:35:02;8.15;;;3.25;;
11046;SDS011;5576;50.008;10.596;2024-02-21T12:37:29;14.73;;;6.72;;
11046;SDS011;5576;50.008;10.596;2024-02-21T12:39:55;14.68;;;5.82;;
11046;SDS011;5576;50.008;10.596;2024-02-21T12:42:20;7.90;;;2.90;;
11046;SDS011;5576;50.008;10.596;2024-02-21T12:44:48;11.50;;;5.53;;
11046;SDS011;5576;50.008;10.596;2024-02-21T12:47:14;11.90;;;4.87;;
11046;SDS011;5576;50.008;10.596;2024-02-21T12:49:40;7.40;;;3.58;;
11046;SDS011;5576;50.008;10.596;2024-02-21T12:52:06;6.57;;;3.20;;
11046;SDS011;5576;50.008;10.596;2024-02-21T12:54:32;5.60;;;2.07;;
11046;SDS011;5576;50.008;10.596;2024-02-21T12:56:59;10.55;;;3.15;;
11046;SDS011;5576;50.008;10.596;2024-02-21T12:59:28;6.67;;;2.40;;
11046;SDS011;5576;50.008;10.596;2024-02-21T13:01:54;4.50;;;2.20;;
11046;SDS011;5576;50.008;10.596;2024-02-21T13:04:20;5.90;;;2.50;;
11046;SDS011;5576;50.008;10.596;2024-02-21T13:06:48;6.60;;;1.95;;
11046;SDS011;5576;50.008;10.596;2024-02-21T13:09:14;4.57;;;2.10;;
11046;SDS011;5576;50.008;10.596;2024-02-21T13:11:40;6.10;;;2.30;;
11046;SDS011;5576;50.008;10.596;2024-02-21T13:14:06;4.25;;;1.73;;
11046;SDS011;5576;50.008;10.596;2024-02-21T13:16:32;5.33;;;2.40;;
11046;SDS011;5576;50.008;10.596;2024-02-21T13:19:04;6.07;;;2.38;;
11046;SDS011;5576;50.008;10.596;2024-02-21T13:21:30;6.05;;;2.25;;
11046;SDS011;5576;50.008;10.596;2024-02-21T13:23:56;6.60;;;2.23;;
11046;SDS011;5576;50.008;10.596;2024-02-21T13:26:22;4.47;;;2.00;;
11046;SDS011;5576;50.008;10.596;2024-02-21T13:28:48;4.77;;;2.00;;
11046;SDS011;5576;50.008;10.596;2024-02-21T13:31:14;4.90;;;2.10;;
11046;SDS011;5576;50.008;10.596;2024-02-21T13:33:41;4.80;;;1.73;;
11046;SDS011;5576;50.008;10.596;2024-02-21T13:36:09;4.80;;;1.70;;
11046;SDS011;5576;50.008;10.596;2024-02-21T13:38:35;5.72;;;1.88;;
11046;SDS011;5576;50.008;10.596;2024-02-21T13:41:01;5.75;;;1.95;;
11046;SDS011;5576;50.008;10.596;2024-02-21T13:43:27;4.13;;;1.83;;
11046;SDS011;5576;50.008;10.596;2024-02-21T13:45:56;2.50;;;1.77;;
11046;SDS011;5576;50.008;10.596;2024-02-21T13:48:23;5.03;;;1.75;;
11046;SDS011;5576;50.008;10.596;2024-02-21T13:50:49;4.82;;;1.70;;
11046;SDS011;5576;50.008;10.596;2024-02-21T13:53:15;6.53;;;2.17;;
11046;SDS011;5576;50.008;10.596;2024-02-21T13:55:44;4.57;;;1.50;;
11046;SDS011;5576;50.008;10.596;2024-02-21T13:58:10;5.22;;;1.52;;
11046;SDS011;5576;50.008;10.596;2024-02-21T14:00:36;4.47;;;1.45;;
11046;SDS011;5576;50.008;10.596;2024-02-21T14:03:02;6.13;;;1.97;;
11046;SDS011;5576;50.008;10.596;2024-02-21T14:05:28;7.10;;;1.67;;
11046;SDS011;5576;50.008;10.596;2024-02-21T14:07:54;3.80;;;1.42;;
11046;SDS011;5576;50.008;10.596;2024-02-21T14:10:20;4.63;;;1.50;;
11046;SDS011;5576;50.008;10.596;2024-02-21T14:12:46;5.13;;;1.60;;
11046;SDS011;5576;50.008;10.596;2024-02-21T14:15:13;5.75;;;1.90;;
11046;SDS011;5576;50.008;10.596;2024-02-21T14:17:39;7.03;;;1.65;;
11046;SDS011;5576;50.008;10.596;2024-02-21T14:20:06;5.03;;;1.70;;
11046;SDS011;5576;50.008;10.596;2024-02-21T14:22:33;3.17;;;1.40;;
11046;SDS011;5576;50.008;10.596;2024-02-21T14:24:59;3.45;;;1.48;;
11046;SDS011;5576;50.008;10.596;2024-02-21T14:27:25;4.03;;;1.60;;
11046;SDS011;5576;50.008;10.596;2024-02-21T14:29:51;4.90;;;1.55;;
11046;SDS011;5576;50.008;10.596;2024-02-21T14:32:18;4.28;;;1.50;;
11046;SDS011;5576;50.008;10.596;2024-02-21T14:34:48;6.17;;;1.60;;
11046;SDS011;5576;50.008;10.596;2024-02-21T14:37:14;6.37;;;1.80;;
11046;SDS011;5576;50.008;10.596;2024-02-21T14:39:40;4.18;;;1.33;;
11046;SDS011;5576;50.008;10.596;2024-02-21T14:42:06;3.13;;;1.50;;
11046;SDS011;5576;50.008;10.596;2024-02-21T14:44:35;5.25;;;1.80;;
11046;SDS011;5576;50.008;10.596;2024-02-21T14:47:02;5.50;;;1.80;;